Pagina principală
METAR-TAF:

METAR-TAF

Aeroporturi :

Medicine Hat, Alberta, Canada

Latitudine: 50-01N, longitudine: 110-43W, elevație: 717 m

Observații meteo curente

Raportul a fost făcut în urmă cu 48 de minute, la 04:00 UTC
Vânt 6 kt de la Est/Sud-est
Temperatură 17°C
Umiditate 42%
Presiune 1017 hPa
Vizibilitate: 14.5 km
Cer senin

METAR: CYXH 280400Z AUTO 11006KT 9SM CLR 17/04 A3004 RMK SLP176 DENSITY ALT 3000FT

Ora: 22:48 (04:48 UTC)

Prognoză

Raportul a fost făcut în urmă cu 5 ore și 2 de minute, la 23:46 UTC
Prognoză valabilă de la 28 ora 00 UTC la 28 ora 12 UTC
Vânt 6 kt de la Vest
Vizibilitate: 10 km
Nori împrăștiați la o înălțime de 22000 picior
Devenind
de la 28 ora 00 UTC la 28 ora 02 UTC
Vânt 3 kt din direcții variabile

TAF: CYXH 272346Z 2800/2812 27006KT P6SM SCT220 BECMG 2800/2802 VRB03KT RMK NXT FCST BY 280600Z

Observații și prognoze meteo pentru peste 4.000 de aeroporturi (rapoarte METAR și TAF).

Stațiile disponibile sunt reprezentate pe hartă prin puncte galbene și roșii.

Țineți indicatorul mouse-ului pe punctul dorit pentru a vedea denumirea stației.

Apoi, faceți clic pentru a vedea observațiile și prognozele meteorologice.

Pentru a schimba harta: Pentru mărire, faceți clic pe butoanele verzi cu cruce neagră; pentru micșorare, pe butonul verde cu o liniuță; pentru hărți învecinate, pe săgețile verzi.


METAR-TAF: